Time;durP1;ratioP1;P1;durP2;ratioP2;P2;SDS_P1;SDS_P2;PMS_P1;PMS_P2;Temp;Humidity;BMP_temperature;BMP_pressure;BME280_temperature;BME280_humidity;BME280_pressure;Samples;Min_cycle;Max_cycle;Signal;HPM_P1;HPM_P2
2023/08/13 00:02:26;;;;;;;6.60;3.60;;;;;;;15.65;66.44;99676.39;107532;1254;60332;-39
2023/08/13 00:04:53;;;;;;;6.90;3.80;;;;;;;15.60;66.61;99673.65;107504;1254;73828;-39
2023/08/13 00:07:21;;;;;;;5.50;3.60;;;;;;;15.56;66.85;99668.55;107585;1254;67579;-38
2023/08/13 00:09:48;;;;;;;5.70;3.30;;;;;;;15.52;67.00;99671.74;107492;1253;71675;-39
2023/08/13 00:12:16;;;;;;;6.20;3.60;;;;;;;15.50;67.17;99674.45;107519;1254;61830;-39
2023/08/13 00:14:44;;;;;;;6.00;3.10;;;;;;;15.53;67.20;99671.45;107484;1253;60139;-39
2023/08/13 00:17:11;;;;;;;6.30;3.90;;;;;;;15.53;67.26;99670.96;107488;1254;73870;-39
2023/08/13 00:19:39;;;;;;;6.30;3.50;;;;;;;15.52;67.44;99671.43;107481;1254;67582;-39
2023/08/13 00:22:07;;;;;;;4.90;3.40;;;;;;;15.50;67.57;99677.48;107483;1254;72819;-39
2023/08/13 00:24:35;;;;;;;7.20;4.30;;;;;;;15.47;67.54;99676.30;107470;1254;60081;-39
2023/08/13 00:27:03;;;;;;;8.20;3.60;;;;;;;15.45;67.69;99672.45;107484;1254;60302;-39
2023/08/13 00:29:33;;;;;;;6.60;3.60;;;;;;;15.45;67.96;99674.64;107211;1254;73903;-39
2023/08/13 00:32:00;;;;;;;;;;;;;;;15.48;67.80;99674.36;107237;1254;67576;-39
2023/08/13 00:34:28;;;;;;;6.30;3.60;;;;;;;15.52;67.71;99673.63;107193;1254;72720;-39
2023/08/13 00:36:56;;;;;;;7.60;3.90;;;;;;;15.52;67.70;99677.05;107135;1257;60423;-39
2023/08/13 00:39:23;;;;;;;5.40;3.30;;;;;;;15.50;67.69;99676.09;107239;1254;60310;-39
2023/08/13 00:41:53;;;;;;;8.90;3.60;;;;;;;15.48;67.64;99679.20;107218;1254;73174;-39
2023/08/13 00:44:20;;;;;;;6.50;3.50;;;;;;;15.46;67.73;99679.65;107272;1254;66635;-39
2023/08/13 00:46:48;;;;;;;7.00;4.20;;;;;;;15.42;67.77;99677.23;107037;1254;72732;-39
2023/08/13 00:49:15;;;;;;;6.50;3.30;;;;;;;15.43;67.84;99682.30;107118;1257;61682;-39
2023/08/13 00:51:43;;;;;;;5.50;3.80;;;;;;;15.43;67.79;99684.95;107395;1253;60488;-39
2023/08/13 00:54:11;;;;;;;5.60;3.40;;;;;;;15.42;67.96;99686.90;107385;1253;73944;-39
2023/08/13 00:56:40;;;;;;;5.10;3.80;;;;;;;15.40;68.09;99688.98;107211;1259;67595;-40
2023/08/13 00:59:07;;;;;;;5.90;3.90;;;;;;;15.36;68.18;99686.56;107186;1253;72672;-40
2023/08/13 01:01:35;;;;;;;6.80;3.50;;;;;;;15.30;68.33;99689.72;107112;1254;60419;-40
2023/08/13 01:04:04;;;;;;;7.80;3.70;;;;;;;15.27;68.50;99689.86;107408;1253;58756;-40
2023/08/13 01:06:49;;;;;;;8.60;4.00;;;;;;;15.28;68.42;99682.92;107418;1253;74176;-40
2023/08/13 01:09:38;;;;;;;8.40;3.70;;;;;;;15.30;68.47;99681.54;107441;1253;67598;-41
2023/08/13 01:12:09;;;;;;;7.40;3.40;;;;;;;15.27;68.59;99681.98;107360;1254;73298;-40
2023/08/13 01:14:46;;;;;;;5.40;3.50;;;;;;;15.24;68.84;99683.61;107402;1256;60380;-40
2023/08/13 01:17:13;;;;;;;7.90;3.90;;;;;;;15.21;68.96;99682.58;107429;1253;60022;-40
2023/08/13 01:19:41;;;;;;;7.30;3.90;;;;;;;15.16;68.95;99682.31;107256;1260;73844;-40
2023/08/13 01:22:09;;;;;;;6.50;3.60;;;;;;;15.19;68.89;99682.02;107403;1252;67692;-40
2023/08/13 01:24:36;;;;;;;5.80;3.80;;;;;;;15.25;68.85;99686.19;107232;1256;71438;-40
2023/08/13 01:27:29;;;;;;;5.30;3.70;;;;;;;15.27;68.80;99687.91;107407;1253;60421;-40
2023/08/13 01:30:07;;;;;;;9.70;4.20;;;;;;;15.26;68.91;99688.05;107170;1253;60330;-40
2023/08/13 01:32:38;;;;;;;8.30;3.90;;;;;;;15.20;69.11;99687.72;107280;1253;72582;-40
2023/08/13 01:35:07;;;;;;;8.10;4.00;;;;;;;15.17;69.15;99686.23;107267;1253;67425;-40
2023/08/13 01:37:35;;;;;;;7.00;4.00;;;;;;;15.19;69.04;99684.84;107381;1254;72745;-40
2023/08/13 01:40:03;;;;;;;8.80;4.10;;;;;;;15.20;68.95;99685.30;107158;1261;60423;-40
2023/08/13 01:42:33;;;;;;;6.70;3.70;;;;;;;15.20;69.04;99684.37;107166;1253;60592;-40
2023/08/13 01:45:00;;;;;;;7.00;4.20;;;;;;;15.19;69.18;99683.67;107290;1254;73041;-40
2023/08/13 01:47:28;;;;;;;8.60;4.10;;;;;;;15.17;69.15;99679.59;107286;1254;66491;-40
2023/08/13 01:49:56;;;;;;;7.60;4.60;;;;;;;15.16;69.17;99683.95;107414;1253;72706;-40
2023/08/13 01:52:25;;;;;;;11.40;4.10;;;;;;;15.13;69.20;99688.09;107386;1254;60748;-40
2023/08/13 01:54:53;;;;;;;9.20;4.10;;;;;;;15.13;69.18;99686.66;107167;1253;60425;-40
2023/08/13 01:57:20;;;;;;;6.10;3.50;;;;;;;15.13;69.23;99687.07;107409;1253;73886;-40
2023/08/13 01:59:49;;;;;;;4.50;3.40;;;;;;;15.10;69.39;99687.90;107438;1254;68032;-40
2023/08/13 02:02:17;;;;;;;8.00;3.70;;;;;;;15.08;69.49;99693.36;107200;1260;71782;-40
2023/08/13 02:04:44;;;;;;;7.30;4.10;;;;;;;15.02;69.59;99689.02;107369;1253;60362;-39
2023/08/13 02:07:12;;;;;;;5.30;4.10;;;;;;;14.99;69.80;99695.95;107242;1253;60445;-39
2023/08/13 02:09:40;;;;;;;7.70;3.90;;;;;;;14.95;69.85;99699.19;107236;1255;73846;-39
2023/08/13 02:12:07;;;;;;;5.40;3.80;;;;;;;14.94;69.79;99696.39;107272;1253;67625;-39
2023/08/13 02:14:35;;;;;;;5.50;3.70;;;;;;;14.98;69.71;99696.71;107261;1253;73104;-39
2023/08/13 02:17:03;;;;;;;6.10;4.20;;;;;;;14.99;69.83;99690.95;107177;1253;60300;-39
2023/08/13 02:19:32;;;;;;;9.70;4.20;;;;;;;14.99;69.83;99694.77;107368;1253;60296;-39
2023/08/13 02:22:02;;;;;;;7.50;3.90;;;;;;;14.94;69.80;99696.08;107337;1255;72646;-39
2023/08/13 02:24:29;;;;;;;7.50;4.10;;;;;;;14.89;69.88;99696.73;107330;1253;66464;-37
2023/08/13 02:26:57;;;;;;;7.40;3.70;;;;;;;14.83;70.12;99699.67;107343;1260;72673;-38
2023/08/13 02:29:25;;;;;;;7.10;3.50;;;;;;;14.83;70.21;99699.11;107351;1253;60714;-38
2023/08/13 02:31:54;;;;;;;5.20;3.70;;;;;;;14.88;70.42;99700.23;107442;1253;60394;-38
2023/08/13 02:34:22;;;;;;;6.90;3.80;;;;;;;14.88;70.44;99705.30;107389;1253;72548;-38
2023/08/13 02:36:50;;;;;;;5.10;3.70;;;;;;;14.86;70.76;99706.16;107454;1253;66613;-38
2023/08/13 02:39:18;;;;;;;6.50;3.70;;;;;;;14.85;71.05;99709.75;107390;1253;71704;-38
2023/08/13 02:41:45;;;;;;;6.80;4.10;;;;;;;14.86;71.06;99706.08;107214;1257;60421;-37
2023/08/13 02:44:13;;;;;;;7.40;3.90;;;;;;;14.91;70.94;99707.74;107393;1253;60366;-38
2023/08/13 02:46:41;;;;;;;5.30;3.90;;;;;;;14.97;70.56;99709.20;107457;1253;72744;-38
2023/08/13 02:49:11;;;;;;;8.80;3.70;;;;;;;14.98;70.42;99711.54;107247;1253;66773;-38
2023/08/13 02:51:38;;;;;;;6.90;4.00;;;;;;;14.94;70.27;99712.30;107391;1256;72688;-38
2023/08/13 02:54:06;;;;;;;7.70;4.30;;;;;;;14.92;70.33;99713.98;107376;1253;60323;-38
2023/08/13 02:56:35;;;;;;;5.50;3.90;;;;;;;14.91;70.18;99711.26;107297;1253;60398;-38
2023/08/13 02:59:03;;;;;;;5.50;4.00;;;;;;;14.89;70.13;99712.73;107369;1260;73924;-38
2023/08/13 03:01:31;;;;;;;10.80;4.10;;;;;;;14.88;70.27;99714.59;107377;1253;67580;-38
2023/08/13 03:04:02;;;;;;;6.20;4.00;;;;;;;14.91;70.46;99715.71;107251;1257;70410;-38
2023/08/13 03:06:31;;;;;;;6.80;4.20;;;;;;;14.92;70.54;99720.00;107406;1253;60396;-38
2023/08/13 03:08:58;;;;;;;10.30;3.90;;;;;;;14.91;70.40;99718.05;107344;1253;60506;-40
2023/08/13 03:11:26;;;;;;;6.50;4.00;;;;;;;14.88;70.32;99722.93;107341;1253;73846;-37
2023/08/13 03:13:53;;;;;;;6.60;4.00;;;;;;;14.84;70.51;99721.98;107353;1253;66748;-38
2023/08/13 03:16:21;;;;;;;9.50;4.20;;;;;;;14.86;70.67;99726.05;107319;1253;72666;-38
2023/08/13 03:18:50;;;;;;;7.80;3.70;;;;;;;14.88;70.39;99725.21;107380;1256;60423;-38
2023/08/13 03:21:19;;;;;;;7.90;4.10;;;;;;;14.85;70.46;99726.27;107475;1253;59387;-38
2023/08/13 03:23:47;;;;;;;6.30;3.70;;;;;;;14.78;70.56;99724.89;107291;1253;71852;-38
2023/08/13 03:26:15;;;;;;;8.00;3.90;;;;;;;14.74;70.76;99727.52;107389;1253;66755;-38
2023/08/13 03:28:43;;;;;;;6.30;3.90;;;;;;;14.71;70.81;99727.02;107296;1253;71747;-38
2023/08/13 03:31:14;;;;;;;6.30;4.10;;;;;;;14.71;70.79;99726.48;107374;1256;60424;-38
2023/08/13 03:33:48;;;;;;;7.40;4.40;;;;;;;14.75;70.65;99725.80;107404;1253;60369;-38
2023/08/13 03:36:16;;;;;;;7.80;4.40;;;;;;;14.77;70.67;99727.21;107386;1253;73872;-38
2023/08/13 03:38:43;;;;;;;5.70;4.10;;;;;;;14.78;70.74;99723.26;107453;1253;67621;-39
2023/08/13 03:41:11;;;;;;;6.70;4.70;;;;;;;14.81;70.60;99725.00;107305;1254;71021;-39
2023/08/13 03:43:39;;;;;;;7.80;4.10;;;;;;;14.82;70.62;99733.57;107380;1253;61716;-39
2023/08/13 03:46:06;;;;;;;7.10;4.50;;;;;;;14.87;70.66;99733.62;107382;1253;60190;-39
2023/08/13 03:48:35;;;;;;;7.90;4.40;;;;;;;14.92;70.47;99734.51;107441;1253;73907;-39
2023/08/13 03:51:03;;;;;;;7.10;4.10;;;;;;;14.89;70.72;99741.19;107375;1253;67289;-39
2023/08/13 03:53:32;;;;;;;8.50;4.60;;;;;;;14.86;71.21;99740.32;107420;1255;71386;-39
2023/08/13 03:55:59;;;;;;;7.60;4.70;;;;;;;14.85;71.45;99741.64;107331;1259;60401;-39
2023/08/13 03:58:28;;;;;;;8.10;4.80;;;;;;;14.88;71.43;99745.55;107467;1253;60334;-39
2023/08/13 04:00:55;;;;;;;10.00;5.00;;;;;;;14.94;71.25;99742.56;107331;1253;72655;-39
2023/08/13 04:03:23;;;;;;;9.30;5.10;;;;;;;15.02;71.10;99743.71;107420;1253;66588;-37
2023/08/13 04:05:54;;;;;;;7.00;5.40;;;;;;;15.04;71.19;99743.81;107293;1253;71421;-37
2023/08/13 04:08:21;;;;;;;8.30;5.80;;;;;;;15.04;71.37;99744.35;107142;1259;181570;-37
2023/08/13 04:12:12;;;;;;;9.80;5.50;;;;;;;15.07;71.66;99744.05;104153;1292;601723;-37
2023/08/13 04:14:40;;;;;;;9.70;5.40;;;;;;;15.11;71.89;99745.40;106607;1267;62064;-38
2023/08/13 04:17:08;;;;;;;7.90;5.10;;;;;;;15.21;71.79;99744.70;106711;1267;59227;-38
2023/08/13 04:19:36;;;;;;;8.80;5.60;;;;;;;15.28;71.95;99747.16;106964;1260;72129;-38
2023/08/13 04:22:03;;;;;;;8.20;6.10;;;;;;;15.31;72.03;99747.02;106955;1264;67603;-38
2023/08/13 04:24:31;;;;;;;10.40;5.60;;;;;;;15.33;72.28;99746.55;106937;1260;71064;-38
2023/08/13 04:27:00;;;;;;;7.10;5.00;;;;;;;15.39;72.53;99748.86;106879;1257;174115;-38
2023/08/13 04:29:29;;;;;;;12.20;5.20;;;;;;;15.48;72.55;99746.73;107115;1257;59394;-38
2023/08/13 04:31:56;;;;;;;8.40;5.40;;;;;;;15.62;72.66;99748.08;106981;1262;71141;-38
2023/08/13 04:34:24;;;;;;;8.00;5.60;;;;;;;15.74;72.62;99741.41;107290;1257;67587;-38
2023/08/13 04:36:52;;;;;;;6.10;5.00;;;;;;;15.83;72.51;99742.92;107228;1257;71412;-38
2023/08/13 04:39:20;;;;;;;8.70;5.50;;;;;;;15.90;72.16;99743.34;107226;1257;59623;-38
2023/08/13 04:41:48;;;;;;;7.20;4.90;;;;;;;15.96;72.08;99742.66;107203;1257;59538;-38
2023/08/13 04:44:17;;;;;;;6.50;4.90;;;;;;;16.06;71.83;99744.41;107013;1259;73076;-38
2023/08/13 04:46:45;;;;;;;8.30;5.30;;;;;;;16.19;71.56;99748.50;107174;1257;66437;-38
2023/08/13 04:49:13;;;;;;;7.50;5.20;;;;;;;16.29;71.35;99753.84;107079;1257;71394;-38
2023/08/13 04:51:40;;;;;;;7.00;5.20;;;;;;;16.36;71.11;99750.49;106957;1263;59500;-38
2023/08/13 04:54:08;;;;;;;8.50;5.00;;;;;;;16.41;70.77;99752.63;107174;1257;60037;-38
2023/08/13 04:56:36;;;;;;;8.60;4.90;;;;;;;16.46;70.81;99749.48;107062;1258;73058;-38
2023/08/13 04:59:04;;;;;;;5.20;4.40;;;;;;;16.56;71.10;99749.91;107093;1256;66377;-38
2023/08/13 05:01:32;;;;;;;6.80;4.60;;;;;;;16.69;70.67;99749.15;107174;1257;71448;-38
2023/08/13 05:04:01;;;;;;;7.70;5.10;;;;;;;16.77;70.59;99748.30;107247;1257;59596;-38
2023/08/13 05:06:32;;;;;;;10.40;5.40;;;;;;;16.85;70.48;99751.58;107226;1257;59618;-38
2023/08/13 05:09:00;;;;;;;6.90;5.20;;;;;;;16.92;70.61;99751.02;107228;1257;71809;-38
2023/08/13 05:11:27;;;;;;;6.50;5.00;;;;;;;17.01;69.99;99750.24;107154;1262;68133;-38
2023/08/13 05:13:55;;;;;;;7.70;4.80;;;;;;;17.12;69.58;99752.11;107277;1257;70438;-38
2023/08/13 05:16:23;;;;;;;6.00;4.50;;;;;;;17.25;69.67;99750.91;107230;1257;59698;-38
2023/08/13 05:18:52;;;;;;;6.30;4.60;;;;;;;17.35;69.28;99753.55;107137;1257;59673;-38
2023/08/13 05:21:19;;;;;;;6.10;4.50;;;;;;;17.44;69.11;99754.85;106977;1258;73067;-39
2023/08/13 05:23:47;;;;;;;7.20;4.80;;;;;;;17.53;68.86;99756.24;107096;1257;66299;-38
2023/08/13 05:26:14;;;;;;;8.10;4.20;;;;;;;17.61;68.78;99756.87;107073;1257;72669;-38
2023/08/13 05:28:42;;;;;;;6.60;4.40;;;;;;;17.73;68.25;99753.23;107185;1257;62268;-39
2023/08/13 05:31:10;;;;;;;5.50;4.20;;;;;;;17.88;67.36;99751.69;107212;1257;59536;-38
2023/08/13 05:33:38;;;;;;;7.50;4.20;;;;;;;17.98;66.86;99752.02;107067;1257;73058;-39
2023/08/13 05:36:06;;;;;;;9.70;4.60;;;;;;;18.06;66.50;99749.01;107081;1257;66504;-39
2023/08/13 05:38:34;;;;;;;6.60;4.80;;;;;;;18.16;66.43;99752.17;107128;1257;71482;-39
2023/08/13 05:41:04;;;;;;;5.40;4.10;;;;;;;18.25;66.13;99757.44;107139;1260;59768;-38
2023/08/13 05:43:32;;;;;;;5.80;4.50;;;;;;;18.34;66.03;99757.39;107192;1257;60028;-38
2023/08/13 05:45:59;;;;;;;6.80;4.40;;;;;;;18.44;66.26;99756.47;107091;1257;73146;-38
2023/08/13 05:48:27;;;;;;;6.80;3.80;;;;;;;18.58;65.22;99761.96;107087;1257;65588;-38
2023/08/13 05:50:55;;;;;;;7.80;4.00;;;;;;;18.72;64.17;99763.36;107130;1257;71447;-38
2023/08/13 05:53:23;;;;;;;4.80;3.80;;;;;;;18.81;63.82;99761.33;107229;1257;59660;-38
2023/08/13 05:55:52;;;;;;;6.20;4.40;;;;;;;18.89;64.01;99759.38;107219;1256;60039;-40
2023/08/13 05:58:19;;;;;;;9.60;4.10;;;;;;;18.97;63.71;99759.77;107193;1256;72214;-40
2023/08/13 06:00:47;;;;;;;7.40;4.10;;;;;;;19.05;63.21;99754.44;107138;1257;67881;-40
2023/08/13 06:03:15;;;;;;;6.10;4.20;;;;;;;19.14;63.63;99753.57;107176;1257;72692;-40
2023/08/13 06:05:43;;;;;;;6.60;4.00;;;;;;;19.23;63.45;99752.30;107063;1257;60827;-39
2023/08/13 06:08:10;;;;;;;6.40;3.70;;;;;;;19.37;62.82;99758.84;107123;1257;59503;-39
2023/08/13 06:10:39;;;;;;;4.60;3.60;;;;;;;19.49;61.89;99754.73;107185;1257;71781;-40
2023/08/13 06:13:08;;;;;;;5.20;3.10;;;;;;;19.60;61.69;99754.84;106928;1257;69753;-39
2023/08/13 06:15:35;;;;;;;8.70;3.70;;;;;;;19.69;61.41;99757.33;107160;1257;71407;-40
2023/08/13 06:18:03;;;;;;;8.70;4.50;;;;;;;19.78;61.62;99756.67;107139;1257;62485;-38
2023/08/13 06:20:31;;;;;;;6.10;3.50;;;;;;;19.88;61.27;99758.44;107074;1257;60050;-38
2023/08/13 06:22:59;;;;;;;4.50;3.50;;;;;;;19.95;60.19;99761.49;106952;1257;73158;-38
2023/08/13 06:25:26;;;;;;;5.50;3.30;;;;;;;20.02;59.66;99758.27;107006;1261;67911;-38
2023/08/13 06:27:54;;;;;;;7.20;3.40;;;;;;;20.08;60.20;99759.59;107079;1260;71462;-38
2023/08/13 06:30:22;;;;;;;5.20;3.60;;;;;;;20.15;60.38;99759.98;107183;1258;59624;-38
2023/08/13 06:32:49;;;;;;;8.70;4.20;;;;;;;20.24;59.86;99759.45;107100;1257;59998;-38
2023/08/13 06:35:17;;;;;;;7.50;3.60;;;;;;;20.32;59.52;99761.96;107158;1258;71757;-38
2023/08/13 06:37:45;;;;;;;6.10;4.30;;;;;;;20.39;59.28;99755.58;107227;1257;66443;-39
2023/08/13 06:40:29;;;;;;;5.70;3.70;;;;;;;20.46;59.36;99761.70;107116;1257;73086;-39
2023/08/13 06:42:57;;;;;;;6.50;3.70;;;;;;;20.54;59.03;99764.88;107125;1257;60139;-38
2023/08/13 06:45:27;;;;;;;5.50;3.90;;;;;;;20.61;58.59;99764.68;107211;1259;60054;-39
2023/08/13 06:47:56;;;;;;;8.00;3.50;;;;;;;20.71;58.83;99764.00;107210;1260;73071;-38
2023/08/13 06:50:25;;;;;;;6.50;3.90;;;;;;;20.80;58.73;99764.47;107099;1257;67614;-38
2023/08/13 06:52:53;;;;;;;6.90;4.20;;;;;;;20.87;58.04;99767.50;107069;1257;71432;-38
2023/08/13 06:55:21;;;;;;;6.70;3.90;;;;;;;20.95;57.98;99766.89;107035;1262;60053;-38
2023/08/13 06:57:48;;;;;;;4.30;3.70;;;;;;;21.02;57.43;99766.46;107154;1256;60343;-38
2023/08/13 07:00:18;;;;;;;4.90;3.40;;;;;;;21.11;56.78;99766.87;107140;1257;72016;-38
2023/08/13 07:02:46;;;;;;;5.70;3.80;;;;;;;21.20;56.33;99765.14;107193;1257;67937;-38
2023/08/13 07:05:16;;;;;;;5.40;3.70;;;;;;;21.30;56.79;99766.70;107211;1257;72726;-39
2023/08/13 07:07:44;;;;;;;6.10;3.00;;;;;;;21.40;55.24;99764.64;107201;1257;60518;-38
2023/08/13 07:10:11;;;;;;;3.80;2.70;;;;;;;21.48;53.96;99766.77;107163;1262;60078;-39
2023/08/13 07:12:40;;;;;;;3.40;2.60;;;;;;;21.56;52.52;99762.19;107192;1257;73081;-39
2023/08/13 07:15:09;;;;;;;7.10;2.90;;;;;;;21.65;51.78;99763.13;107178;1257;67599;-39
2023/08/13 07:17:38;;;;;;;2.70;2.50;;;;;;;21.73;52.30;99763.67;107136;1258;72756;-38
2023/08/13 07:20:09;;;;;;;6.20;2.90;;;;;;;21.82;51.62;99763.27;107161;1257;59509;-38
2023/08/13 07:22:37;;;;;;;5.00;2.90;;;;;;;21.90;51.77;99761.91;107225;1257;59586;-39
2023/08/13 07:25:05;;;;;;;3.80;2.70;;;;;;;21.98;52.25;99763.42;107034;1262;71824;-38
2023/08/13 07:27:33;;;;;;;3.90;2.90;;;;;;;22.08;50.54;99763.13;107654;1257;66489;-39
2023/08/13 07:30:01;;;;;;;7.50;3.20;;;;;;;22.17;49.64;99760.90;107104;1257;71408;-39
2023/08/13 07:32:29;;;;;;;5.70;2.80;;;;;;;22.26;49.48;99763.63;107121;1257;60119;-39
2023/08/13 07:34:57;;;;;;;4.30;2.90;;;;;;;22.35;49.69;99764.29;107177;1257;59665;-39
2023/08/13 07:37:24;;;;;;;5.30;3.20;;;;;;;22.46;50.87;99760.41;107153;1257;72644;-39
2023/08/13 07:39:55;;;;;;;4.30;3.10;;;;;;;22.56;50.57;99760.71;107196;1257;67570;-39
2023/08/13 07:42:23;;;;;;;5.60;2.70;;;;;;;22.65;49.91;99761.20;107225;1257;71610;-39
2023/08/13 07:44:52;;;;;;;3.70;3.00;;;;;;;22.73;48.88;99760.25;107171;1257;59618;-40
2023/08/13 07:47:21;;;;;;;3.80;2.70;;;;;;;22.80;48.54;99759.59;107127;1257;60033;-40
2023/08/13 07:49:48;;;;;;;5.00;2.70;;;;;;;22.90;48.77;99759.91;107057;1257;73105;-40
2023/08/13 07:52:17;;;;;;;3.40;2.80;;;;;;;23.00;48.58;99757.38;107066;1260;67557;-40
2023/08/13 07:54:44;;;;;;;3.80;2.90;;;;;;;23.07;49.28;99754.67;106977;1257;70982;-40
2023/08/13 07:57:12;;;;;;;5.00;2.60;;;;;;;23.17;48.02;99754.08;106993;1261;59452;-40
2023/08/13 07:59:41;;;;;;;4.20;2.60;;;;;;;23.26;46.51;99753.15;107982;1257;59948;-41
2023/08/13 08:02:08;;;;;;;5.20;2.50;;;;;;;23.33;46.22;99752.79;107151;1257;71857;-40
2023/08/13 08:04:36;;;;;;;6.50;2.90;;;;;;;23.42;46.22;99752.16;107197;1257;66346;-40
2023/08/13 08:07:04;;;;;;;5.70;3.00;;;;;;;23.50;47.37;99753.95;107207;1257;72650;-40
2023/08/13 08:09:31;;;;;;;3.40;2.60;;;;;;;23.58;47.17;99752.31;107119;1257;59954;-40
2023/08/13 08:11:59;;;;;;;3.50;2.60;;;;;;;23.66;46.77;99750.81;107087;1257;59570;-40
2023/08/13 08:14:27;;;;;;;5.60;2.70;;;;;;;23.75;46.46;99752.84;107142;1257;73045;-40
2023/08/13 08:17:00;;;;;;;5.20;2.20;;;;;;;23.83;45.56;99748.73;107068;1259;66316;-39
2023/08/13 08:19:27;;;;;;;4.20;2.60;;;;;;;23.95;45.28;99749.20;107131;1257;72625;-40
2023/08/13 08:21:56;;;;;;;3.60;2.30;;;;;;;24.08;45.28;99744.75;107054;1257;60549;-40
2023/08/13 08:24:25;;;;;;;3.10;2.50;;;;;;;24.21;44.10;99737.48;107129;1257;60365;-40
2023/08/13 08:26:52;;;;;;;3.40;2.20;;;;;;;24.28;43.15;99738.49;107102;1256;74151;-40
2023/08/13 08:29:20;;;;;;;3.50;2.30;;;;;;;24.23;43.11;99742.67;107170;1257;68111;-40
2023/08/13 08:31:47;;;;;;;4.10;2.10;;;;;;;24.14;41.60;99741.48;107183;1257;71489;-40
2023/08/13 08:34:15;;;;;;;4.20;2.40;;;;;;;24.02;41.51;99746.67;107198;1257;60061;-39
2023/08/13 08:36:43;;;;;;;4.30;2.40;;;;;;;23.87;41.24;99746.98;107211;1258;59783;-39
2023/08/13 08:39:11;;;;;;;4.90;2.20;;;;;;;23.74;41.32;99747.17;107114;1257;73869;-39
2023/08/13 08:41:40;;;;;;;2.90;2.10;;;;;;;23.69;41.57;99743.52;107138;1257;66328;-39
2023/08/13 08:44:08;;;;;;;3.70;2.50;;;;;;;23.77;41.11;99744.48;107173;1257;71499;-39
2023/08/13 08:46:36;;;;;;;3.50;2.30;;;;;;;23.93;40.74;99746.64;107118;1261;60506;-39
2023/08/13 08:49:04;;;;;;;3.10;2.30;;;;;;;24.00;41.17;99745.55;107130;1256;60421;-39
2023/08/13 08:51:32;;;;;;;3.80;2.50;;;;;;;24.02;41.75;99741.61;106992;1264;74353;-39
2023/08/13 08:53:59;;;;;;;4.40;2.60;;;;;;;24.08;42.18;99734.55;107210;1257;67572;-39
2023/08/13 08:56:27;;;;;;;4.20;2.50;;;;;;;24.15;41.94;99740.51;107138;1262;71445;-39
2023/08/13 08:58:54;;;;;;;5.10;2.30;;;;;;;24.19;41.35;99738.29;107002;1257;60694;-39
2023/08/13 09:01:22;;;;;;;5.30;2.10;;;;;;;24.18;40.97;99734.98;107115;1260;59902;-39
2023/08/13 09:03:50;;;;;;;3.70;2.20;;;;;;;24.24;40.79;99740.90;107123;1260;73848;-39
2023/08/13 09:06:17;;;;;;;3.70;2.20;;;;;;;24.32;40.62;99738.21;107191;1257;66743;-39
2023/08/13 09:08:49;;;;;;;3.30;2.50;;;;;;;24.41;40.67;99737.73;107225;1261;72677;-39
2023/08/13 09:11:20;;;;;;;3.30;2.30;;;;;;;24.50;41.18;99736.03;107206;1257;60995;-39
2023/08/13 09:13:50;;;;;;;3.90;2.30;;;;;;;24.61;41.61;99736.63;107070;1257;60300;-39
2023/08/13 09:16:19;;;;;;;5.80;2.50;;;;;;;24.73;40.38;99736.83;107233;1258;72649;-39
2023/08/13 09:18:50;;;;;;;2.60;2.20;;;;;;;24.82;39.97;99731.13;107352;1256;67592;-39
2023/08/13 09:21:34;;;;;;;6.00;2.80;;;;;;;24.94;39.75;99729.33;107212;1257;73039;-39
2023/08/13 09:24:03;;;;;;;3.50;2.60;;;;;;;25.01;39.08;99734.23;107231;1257;60748;-39
2023/08/13 09:26:30;;;;;;;3.90;2.50;;;;;;;25.02;39.39;99732.77;107256;1256;60126;-39
2023/08/13 09:28:59;;;;;;;3.90;2.30;;;;;;;25.00;39.55;99730.94;107217;1257;72628;-39
2023/08/13 09:31:27;;;;;;;3.40;2.20;;;;;;;24.95;39.71;99730.05;107225;1257;68094;-39
2023/08/13 09:33:54;;;;;;;3.70;2.40;;;;;;;24.95;40.03;99731.02;107104;1258;72780;-39
2023/08/13 09:36:22;;;;;;;3.20;2.50;;;;;;;24.94;40.56;99734.38;107198;1258;60434;-39
2023/08/13 09:38:49;;;;;;;4.80;2.50;;;;;;;24.91;40.89;99733.13;107220;1257;60434;-39
2023/08/13 09:41:17;;;;;;;4.20;2.50;;;;;;;24.95;41.24;99733.23;107179;1257;73842;-39
2023/08/13 09:43:44;;;;;;;3.80;2.10;;;;;;;25.05;40.19;99735.76;107239;1257;68061;-39
2023/08/13 09:46:12;;;;;;;3.90;2.30;;;;;;;25.15;39.14;99732.73;107200;1257;72484;-39
2023/08/13 09:48:40;;;;;;;6.20;2.70;;;;;;;25.14;38.58;99730.70;107032;1258;60136;-39
2023/08/13 09:51:07;;;;;;;3.20;2.30;;;;;;;25.11;39.03;99732.30;106970;1257;60305;-39
2023/08/13 09:53:36;;;;;;;6.10;2.70;;;;;;;25.12;38.90;99732.19;107160;1258;72391;-38
2023/08/13 09:56:03;;;;;;;4.90;2.50;;;;;;;25.19;39.69;99723.80;107158;1262;68429;-38
2023/08/13 09:58:31;;;;;;;3.80;2.60;;;;;;;25.38;39.20;99726.04;107233;1257;71489;-38
2023/08/13 10:00:58;;;;;;;4.80;2.60;;;;;;;25.61;39.31;99729.27;107172;1257;60418;-39
2023/08/13 10:03:26;;;;;;;5.70;2.60;;;;;;;25.83;38.36;99726.57;107036;1257;60349;-38
2023/08/13 10:05:54;;;;;;;4.70;2.40;;;;;;;26.03;38.53;99731.83;107052;1257;73851;-38
2023/08/13 10:08:21;;;;;;;4.00;2.40;;;;;;;26.21;36.97;99730.48;107017;1257;66642;-39
2023/08/13 10:10:49;;;;;;;3.60;2.30;;;;;;;26.33;36.50;99729.34;107015;1257;72687;-39
2023/08/13 10:13:17;;;;;;;2.90;2.20;;;;;;;26.39;36.49;99728.76;107214;1257;60303;-38
2023/08/13 10:15:45;;;;;;;3.60;2.20;;;;;;;26.45;36.65;99722.42;107051;1257;60683;-39
2023/08/13 10:18:13;;;;;;;5.40;2.40;;;;;;;26.51;36.49;99720.60;107142;1257;73054;-39
2023/08/13 10:20:45;;;;;;;5.90;2.50;;;;;;;26.60;36.13;99720.38;107162;1257;68032;-39
2023/08/13 10:23:12;;;;;;;4.10;2.20;;;;;;;26.71;36.70;99716.98;107232;1258;73408;-40
2023/08/13 10:25:41;;;;;;;4.70;2.50;;;;;;;26.85;36.55;99716.84;107194;1257;60392;-39
2023/08/13 10:28:22;;;;;;;3.60;2.00;;;;;;;26.95;36.88;99726.56;107087;1257;60019;-40
2023/08/13 10:30:56;;;;;;;4.00;2.30;;;;;;;27.00;36.07;99723.17;106945;1257;73954;-40
2023/08/13 10:33:24;;;;;;;4.80;2.30;;;;;;;27.01;36.38;99727.36;106982;1257;68350;-40
2023/08/13 10:35:57;;;;;;;5.10;2.30;;;;;;;27.05;35.78;99726.39;107182;1257;72779;-40
2023/08/13 10:38:33;;;;;;;6.00;2.30;;;;;;;27.17;35.58;99723.23;107172;1257;60479;-40
2023/08/13 10:41:02;;;;;;;2.30;1.80;;;;;;;27.34;34.50;99726.58;107158;1257;60209;-39
2023/08/13 10:43:29;;;;;;;6.20;2.10;;;;;;;27.34;33.88;99725.88;107147;1257;73892;-40
2023/08/13 10:46:03;;;;;;;2.90;2.10;;;;;;;27.39;35.21;99723.64;107188;1256;67956;-40
2023/08/13 10:48:31;;;;;;;3.60;2.20;;;;;;;27.58;34.19;99719.88;107139;1257;72736;-40
2023/08/13 10:50:59;;;;;;;4.10;1.70;;;;;;;27.79;34.31;99719.77;107184;1257;60335;-40
2023/08/13 10:53:27;;;;;;;2.70;1.80;;;;;;;27.95;33.71;99717.75;107178;1257;60431;-40
2023/08/13 10:55:56;;;;;;;3.20;2.00;;;;;;;28.08;33.68;99718.89;107148;1257;73913;-40
2023/08/13 10:58:29;;;;;;;2.70;2.10;;;;;;;28.17;33.57;99718.55;107230;1257;66661;-40
2023/08/13 11:01:16;;;;;;;5.10;2.20;;;;;;;28.10;33.49;99717.16;107255;1256;72724;-40
2023/08/13 11:03:45;;;;;;;6.00;2.10;;;;;;;27.95;33.43;99718.34;106996;1257;60389;-40
2023/08/13 11:06:18;;;;;;;2.90;2.10;;;;;;;27.89;33.17;99720.89;107239;1257;60366;-40
2023/08/13 11:08:46;;;;;;;4.80;2.00;;;;;;;27.98;32.85;99718.58;107218;1256;72885;-40
2023/08/13 11:11:16;;;;;;;3.20;2.00;;;;;;;28.15;32.77;99719.26;107371;1260;67604;-40
2023/08/13 11:13:45;;;;;;;2.70;1.90;;;;;;;28.24;32.65;99720.04;107499;1257;72391;-41
2023/08/13 11:16:13;;;;;;;2.20;1.90;;;;;;;28.19;32.20;99726.00;107130;1258;60428;-40
2023/08/13 11:18:40;;;;;;;3.70;1.80;;;;;;;28.11;32.95;99714.10;107192;1262;61047;-40
2023/08/13 11:21:08;;;;;;;3.40;1.90;;;;;;;28.21;33.50;99712.45;107127;1257;72674;-40
2023/08/13 11:23:36;;;;;;;2.70;2.10;;;;;;;28.43;33.07;99711.36;107187;1257;68331;-41
2023/08/13 11:26:04;;;;;;;4.70;1.90;;;;;;;28.63;32.66;99710.95;106967;1257;72721;-40
2023/08/13 11:28:31;;;;;;;2.90;2.00;;;;;;;28.79;31.31;99707.93;107236;1257;60445;-40
2023/08/13 11:30:59;;;;;;;2.50;1.90;;;;;;;28.82;31.82;99705.77;107020;1257;60206;-40
2023/08/13 11:33:27;;;;;;;4.20;2.40;;;;;;;28.82;32.15;99706.88;107050;1257;72656;-41